createdAt,value
2017-10-20T00:01:18.627Z,57.90
2017-10-20T00:03:46.237Z,41.47
2017-10-20T00:06:13.895Z,39.00
2017-10-20T00:08:41.502Z,48.00
2017-10-20T00:11:09.183Z,43.13
2017-10-20T00:13:36.888Z,42.90
2017-10-20T00:16:04.502Z,38.27
2017-10-20T00:18:32.185Z,44.77
2017-10-20T00:20:59.838Z,67.47
2017-10-20T00:23:27.504Z,46.27
2017-10-20T00:25:55.116Z,53.33
2017-10-20T00:28:22.840Z,50.37
2017-10-20T00:30:50.459Z,53.27
2017-10-20T00:33:18.129Z,45.67
2017-10-20T00:35:45.790Z,42.80
2017-10-20T00:38:13.399Z,43.83
2017-10-20T00:40:41.059Z,40.00
2017-10-20T00:43:08.719Z,42.50
2017-10-20T00:45:36.327Z,42.70
2017-10-20T00:48:04.004Z,35.53
2017-10-20T00:50:31.712Z,41.53
2017-10-20T00:52:59.318Z,38.10
2017-10-20T00:55:26.943Z,32.73
2017-10-20T00:57:54.660Z,34.63
2017-10-20T01:00:22.327Z,43.63
2017-10-20T01:02:49.931Z,34.53
2017-10-20T01:05:17.647Z,35.47
2017-10-20T01:07:45.316Z,35.20
2017-10-20T01:10:12.923Z,38.83
2017-10-20T01:12:40.596Z,40.07
2017-10-20T01:15:08.276Z,38.20
2017-10-20T01:17:35.883Z,49.80
2017-10-20T01:20:03.655Z,44.33
2017-10-20T01:22:31.302Z,70.50
2017-10-20T01:24:58.955Z,117.03
2017-10-20T01:27:26.637Z,121.57
2017-10-20T01:29:54.276Z,107.60
2017-10-20T01:32:21.916Z,98.40
2017-10-20T01:34:49.596Z,84.00
2017-10-20T01:37:17.228Z,80.63
2017-10-20T01:39:44.851Z,83.90
2017-10-20T01:42:12.563Z,102.43
2017-10-20T01:44:40.203Z,89.80
2017-10-20T01:47:07.835Z,80.60
2017-10-20T01:49:35.564Z,82.20
2017-10-20T01:52:03.212Z,86.07
2017-10-20T01:54:30.889Z,85.97
2017-10-20T01:56:58.563Z,81.97
2017-10-20T01:59:26.243Z,70.30
2017-10-20T02:01:53.883Z,70.63
2017-10-20T02:04:21.603Z,78.30
2017-10-20T02:06:49.264Z,71.73
2017-10-20T02:09:16.903Z,84.80
2017-10-20T02:11:44.612Z,84.30
2017-10-20T02:14:12.219Z,86.80
2017-10-20T02:16:40.555Z,88.23
2017-10-20T02:19:08.300Z,79.27
2017-10-20T02:21:35.911Z,77.90
2017-10-20T02:24:03.584Z,60.60
2017-10-20T02:26:31.307Z,83.33
2017-10-20T02:28:58.987Z,74.67
2017-10-20T02:31:26.664Z,72.00
2017-10-20T02:33:54.420Z,61.63
2017-10-20T02:36:22.024Z,69.47
2017-10-20T02:38:49.636Z,85.10
2017-10-20T02:41:17.288Z,77.03
2017-10-20T02:43:44.900Z,61.73
2017-10-20T02:46:12.514Z,72.13
2017-10-20T02:48:40.174Z,86.83
2017-10-20T02:51:07.803Z,72.60
2017-10-20T02:53:35.443Z,82.10
2017-10-20T02:56:03.179Z,66.77
2017-10-20T02:58:30.791Z,60.53
2017-10-20T03:00:58.415Z,48.23
2017-10-20T03:03:26.066Z,61.97
2017-10-20T03:05:53.730Z,58.03
2017-10-20T03:08:21.347Z,32.77
2017-10-20T03:10:49.102Z,30.77
2017-10-20T03:13:16.718Z,43.23
2017-10-20T03:15:44.327Z,54.03
2017-10-20T03:18:12.040Z,49.20
2017-10-20T03:20:39.643Z,66.77
2017-10-20T03:23:07.251Z,36.63
2017-10-20T03:25:34.955Z,47.93
2017-10-20T03:28:02.559Z,39.97
2017-10-20T03:30:30.167Z,46.57
2017-10-20T03:32:57.890Z,33.95
2017-10-20T03:35:25.495Z,36.13
2017-10-20T03:37:53.155Z,29.00
2017-10-20T03:40:20.799Z,35.47
2017-10-20T03:42:48.468Z,30.33
2017-10-20T03:45:16.135Z,46.93
2017-10-20T03:47:43.779Z,41.30
2017-10-20T03:50:11.386Z,40.37
2017-10-20T03:52:38.983Z,31.37
2017-10-20T03:55:06.632Z,23.37
2017-10-20T03:57:34.229Z,37.70
2017-10-20T04:00:01.843Z,46.67
2017-10-20T04:02:29.548Z,46.60
2017-10-20T04:04:57.198Z,38.07
2017-10-20T04:07:24.850Z,54.70
2017-10-20T04:09:52.496Z,57.60
2017-10-20T04:12:20.160Z,50.03
2017-10-20T04:14:47.771Z,46.70
2017-10-20T04:17:15.527Z,43.13
2017-10-20T04:19:43.199Z,38.00
2017-10-20T04:22:10.796Z,37.37
2017-10-20T04:24:38.539Z,41.57
2017-10-20T04:27:06.199Z,38.80
2017-10-20T04:29:33.916Z,39.20
2017-10-20T04:32:01.683Z,47.73
2017-10-20T04:34:29.332Z,45.77
2017-10-20T04:36:56.999Z,52.33
2017-10-20T04:39:24.652Z,57.23
2017-10-20T04:41:52.259Z,40.30
2017-10-20T04:44:19.855Z,40.73
2017-10-20T04:46:47.587Z,43.73
2017-10-20T04:49:15.247Z,40.23
2017-10-20T04:51:42.847Z,55.23
2017-10-20T04:54:10.503Z,44.13
2017-10-20T04:56:38.359Z,46.97
2017-10-20T04:59:06.027Z,56.77
2017-10-20T05:01:33.781Z,50.03
2017-10-20T05:04:01.440Z,45.10
2017-10-20T05:06:29.107Z,41.80
2017-10-20T05:08:56.766Z,50.60
2017-10-20T05:11:24.427Z,58.63
2017-10-20T05:13:52.027Z,47.83
2017-10-20T05:16:19.681Z,55.57
2017-10-20T05:18:47.287Z,98.53
2017-10-20T05:21:14.946Z,99.47
2017-10-20T05:23:43.031Z,72.83
2017-10-20T05:26:10.694Z,80.80
2017-10-20T05:28:38.311Z,61.70
2017-10-20T05:31:06.068Z,65.40
2017-10-20T05:33:33.726Z,73.13
2017-10-20T05:36:01.394Z,50.40
2017-10-20T05:38:29.154Z,81.23
2017-10-20T05:40:56.759Z,104.27
2017-10-20T05:43:24.424Z,100.23
2017-10-20T05:45:52.127Z,79.03
2017-10-20T05:48:19.732Z,88.00
2017-10-20T05:50:47.335Z,64.90
2017-10-20T05:53:15.043Z,62.97
2017-10-20T05:55:42.639Z,22.53
2017-10-20T06:25:24.854Z,20.47
2017-10-20T06:27:52.511Z,18.83
2017-10-20T06:30:20.120Z,27.43
2017-10-20T06:32:47.775Z,30.37
2017-10-20T06:35:15.442Z,28.70
2017-10-20T06:37:43.043Z,31.33
2017-10-20T06:40:10.784Z,35.60
2017-10-20T06:42:38.383Z,31.87
2017-10-20T06:45:06.053Z,41.97
2017-10-20T06:47:33.819Z,27.33
2017-10-20T06:50:01.444Z,28.53
2017-10-20T06:52:29.106Z,37.70
2017-10-20T06:54:56.828Z,27.97
2017-10-20T06:57:24.509Z,27.17
2017-10-20T06:59:52.167Z,21.67
2017-10-20T07:02:19.827Z,26.53
2017-10-20T07:04:47.430Z,30.77
2017-10-20T07:07:15.032Z,36.07
2017-10-20T07:09:42.710Z,31.23
2017-10-20T07:12:10.339Z,33.23
2017-10-20T07:14:37.943Z,35.27
2017-10-20T07:17:05.667Z,31.37
2017-10-20T07:19:36.879Z,33.50
2017-10-20T07:22:04.556Z,26.90
2017-10-20T07:24:32.271Z,23.07
2017-10-20T07:26:59.947Z,31.23
2017-10-20T07:29:27.628Z,24.97
2017-10-20T07:31:55.339Z,24.90
2017-10-20T07:34:22.943Z,22.90
2017-10-20T07:36:50.548Z,20.50
2017-10-20T07:39:18.218Z,15.57
2017-10-20T07:41:45.892Z,18.70
2017-10-20T07:44:13.490Z,10.13
2017-10-20T07:46:43.154Z,17.90
2017-10-20T07:49:10.755Z,17.03
2017-10-20T07:51:38.355Z,23.90
2017-10-20T07:54:06.062Z,13.60
2017-10-20T07:56:33.680Z,18.23
2017-10-20T07:59:01.279Z,11.10
2017-10-20T08:01:28.935Z,14.60
2017-10-20T08:03:56.526Z,25.90
2017-10-20T08:06:24.184Z,18.27
2017-10-20T08:08:51.919Z,20.83
2017-10-20T08:11:19.516Z,10.80
2017-10-20T08:13:47.111Z,15.13
2017-10-20T08:16:14.763Z,12.47
2017-10-20T08:34:37.099Z,16.47
2017-10-20T08:37:04.700Z,12.83
2017-10-20T08:39:32.398Z,16.57
2017-10-20T08:42:00.110Z,11.70
2017-10-20T08:44:27.711Z,13.63
2017-10-20T08:46:55.423Z,9.67
2017-10-20T08:49:23.187Z,10.50
2017-10-20T08:51:50.851Z,13.67
2017-10-20T08:54:18.516Z,16.87
2017-10-20T08:56:46.232Z,28.53
2017-10-20T08:59:13.892Z,8.93
2017-10-20T09:01:41.629Z,23.67
2017-10-20T09:04:09.352Z,17.50
2017-10-20T09:06:37.011Z,11.67
2017-10-20T09:09:04.680Z,11.27
2017-10-20T09:11:32.405Z,11.70
2017-10-20T09:14:00.069Z,12.13
2017-10-20T09:16:27.731Z,19.83
2017-10-20T09:18:55.502Z,11.33
2017-10-20T09:21:23.160Z,9.13
2017-10-20T09:23:50.835Z,13.40
2017-10-20T09:26:18.555Z,19.43
2017-10-20T09:28:46.208Z,9.07
2017-10-20T09:31:13.868Z,12.43
2017-10-20T09:33:41.587Z,16.70
2017-10-20T09:36:09.277Z,12.90
2017-10-20T09:38:36.947Z,23.87
2017-10-20T09:41:04.653Z,26.57
2017-10-20T09:43:32.320Z,17.40
2017-10-20T09:45:59.980Z,27.77
2017-10-20T09:48:27.691Z,31.80
2017-10-20T09:50:55.359Z,18.97
2017-10-20T09:53:23.016Z,19.70
2017-10-20T09:55:50.727Z,23.73
2017-10-20T09:58:18.387Z,26.83
2017-10-20T10:00:46.050Z,29.73
2017-10-20T10:03:13.851Z,25.37
2017-10-20T10:05:41.512Z,21.07
2017-10-20T10:08:09.176Z,25.30
2017-10-20T10:10:36.939Z,16.63
2017-10-20T10:13:04.651Z,22.93
2017-10-20T10:15:32.315Z,15.57
2017-10-20T10:18:00.025Z,25.43
2017-10-20T10:20:27.696Z,27.00
2017-10-20T10:22:55.411Z,19.57
2017-10-20T10:25:23.167Z,10.77
2017-10-20T10:27:50.827Z,13.53
2017-10-20T10:30:18.547Z,11.90
2017-10-20T10:32:46.296Z,21.17
2017-10-20T10:35:13.967Z,14.43
2017-10-20T10:37:41.655Z,12.77
2017-10-20T10:40:09.359Z,14.80
2017-10-20T10:42:37.019Z,18.30
2017-10-20T10:45:04.695Z,25.63
2017-10-20T10:47:32.395Z,25.83
2017-10-20T10:50:00.059Z,11.30
2017-10-20T10:52:27.725Z,11.80
2017-10-20T10:54:55.439Z,11.73
2017-10-20T10:57:22.973Z,12.80
2017-10-20T10:59:50.510Z,32.23
2017-10-20T11:02:18.086Z,13.27
2017-10-20T11:04:45.629Z,22.70
2017-10-20T11:07:25.170Z,19.20
2017-10-20T11:13:00.895Z,18.53
2017-10-20T11:15:28.477Z,12.93
2017-10-20T11:17:56.009Z,13.63
2017-10-20T11:20:23.594Z,21.00
2017-10-20T11:22:51.128Z,16.77
2017-10-20T11:25:18.661Z,10.80
2017-10-20T11:27:46.238Z,21.33
2017-10-20T11:30:13.778Z,15.43
2017-10-20T11:32:41.313Z,11.77
2017-10-20T11:35:08.898Z,16.83
2017-10-20T11:37:36.455Z,19.80
2017-10-20T11:40:03.993Z,19.13
2017-10-20T11:42:31.581Z,10.70
2017-10-20T11:44:59.137Z,13.97
2017-10-20T11:47:26.665Z,24.33
2017-10-20T11:49:54.241Z,12.87
2017-10-20T11:52:21.793Z,15.13
2017-10-20T11:54:49.349Z,13.23
2017-10-20T11:57:16.933Z,16.50
2017-10-20T11:59:44.478Z,13.37
2017-10-20T12:02:12.021Z,14.87
2017-10-20T12:04:39.613Z,11.03
2017-10-20T12:07:07.154Z,16.17
2017-10-20T12:09:34.697Z,15.50
2017-10-20T12:12:02.375Z,13.17
2017-10-20T12:14:29.918Z,15.43
2017-10-20T12:16:57.514Z,16.47
2017-10-20T12:19:25.087Z,17.20
2017-10-20T12:21:52.621Z,12.67
2017-10-20T12:24:20.168Z,13.57
2017-10-20T12:26:47.774Z,22.13
2017-10-20T12:29:15.309Z,16.13
2017-10-20T12:31:42.836Z,12.40
2017-10-20T12:34:10.558Z,13.03
2017-10-20T12:36:38.085Z,17.57
2017-10-20T12:39:05.617Z,17.30
2017-10-20T12:41:33.195Z,12.07
2017-10-20T12:44:00.725Z,7.30
2017-10-20T12:46:28.261Z,20.00
2017-10-20T12:48:55.829Z,13.83
2017-10-20T12:51:23.361Z,13.07
2017-10-20T12:53:50.946Z,17.47
2017-10-20T12:56:19.537Z,15.87
2017-10-20T12:58:47.065Z,19.57
2017-10-20T13:01:14.661Z,12.20
2017-10-20T13:03:42.245Z,13.20
2017-10-20T13:06:09.798Z,10.97
2017-10-20T13:08:37.338Z,15.97
2017-10-20T13:11:05.014Z,21.07
2017-10-20T13:13:32.642Z,16.50
2017-10-20T13:16:00.182Z,10.00
2017-10-20T13:18:27.762Z,20.80
2017-10-20T13:20:55.301Z,15.70
2017-10-20T13:23:22.974Z,17.50
2017-10-20T13:25:50.542Z,17.00
2017-10-20T13:28:18.081Z,17.93
2017-10-20T13:30:45.630Z,17.37
2017-10-20T13:33:13.212Z,16.57
2017-10-20T13:35:40.738Z,11.53
2017-10-20T13:38:08.284Z,16.73
2017-10-20T13:40:35.862Z,22.03
2017-10-20T13:43:03.413Z,29.50
2017-10-20T13:45:30.950Z,35.07
2017-10-20T13:47:58.526Z,16.83
2017-10-20T13:50:26.066Z,11.90
2017-10-20T13:52:53.612Z,20.80
2017-10-20T13:55:21.193Z,17.20
2017-10-20T13:57:48.734Z,17.03
2017-10-20T14:00:16.286Z,16.17
2017-10-20T14:02:43.918Z,19.47
2017-10-20T14:05:11.483Z,17.50
2017-10-20T14:07:39.041Z,26.33
2017-10-20T14:10:06.610Z,19.20
2017-10-20T14:12:34.146Z,20.13
2017-10-20T14:15:01.691Z,35.03
2017-10-20T14:17:29.266Z,22.37
2017-10-20T14:19:56.830Z,27.97
2017-10-20T14:22:24.379Z,31.17
2017-10-20T14:24:51.978Z,26.63
2017-10-20T14:27:19.536Z,32.60
2017-10-20T14:29:47.114Z,27.63
2017-10-20T14:32:14.726Z,37.90
2017-10-20T14:34:42.298Z,53.47
2017-10-20T14:37:09.851Z,49.50
2017-10-20T14:39:37.470Z,56.10
2017-10-20T14:42:05.007Z,53.20
2017-10-20T14:44:32.550Z,45.63
2017-10-20T14:47:00.150Z,61.73
2017-10-20T14:49:27.706Z,44.17
2017-10-20T14:51:55.246Z,46.63
2017-10-20T14:54:22.854Z,29.50
2017-10-20T14:56:50.398Z,38.23
2017-10-20T14:59:17.936Z,62.47
2017-10-20T15:01:45.522Z,95.80
2017-10-20T15:04:13.127Z,139.73
2017-10-20T15:06:40.679Z,136.07
2017-10-20T15:09:08.270Z,107.93
2017-10-20T15:11:35.934Z,108.37
2017-10-20T15:14:03.502Z,96.00
2017-10-20T15:16:31.075Z,90.97
2017-10-20T15:18:58.635Z,57.60
2017-10-20T15:21:26.186Z,52.93
2017-10-20T15:23:54.658Z,51.77
2017-10-20T15:26:22.271Z,38.80
2017-10-20T15:28:49.823Z,50.90
2017-10-20T15:31:17.401Z,40.93
2017-10-20T15:33:44.946Z,29.27
2017-10-20T15:36:12.500Z,34.80
2017-10-20T15:38:40.087Z,43.83
2017-10-20T15:41:07.667Z,41.80
2017-10-20T15:43:35.250Z,40.83
2017-10-20T15:46:02.834Z,37.90
2017-10-20T15:48:30.388Z,41.50
2017-10-20T15:50:57.934Z,49.10
2017-10-20T15:53:25.514Z,41.90
2017-10-20T15:55:53.086Z,50.00
2017-10-20T15:58:20.630Z,41.00
2017-10-20T16:00:48.210Z,47.33
2017-10-20T16:03:15.749Z,39.80
2017-10-20T16:05:43.295Z,26.60
2017-10-20T16:08:11.110Z,28.13
2017-10-20T16:10:38.683Z,26.70
2017-10-20T16:13:06.225Z,41.10
2017-10-20T16:15:33.802Z,46.73
2017-10-20T16:18:01.359Z,34.30
2017-10-20T16:20:28.958Z,34.23
2017-10-20T16:22:56.624Z,39.37
2017-10-20T16:25:24.230Z,38.10
2017-10-20T16:27:51.845Z,33.00
2017-10-20T16:30:19.499Z,40.43
2017-10-20T16:32:47.186Z,46.57
2017-10-20T16:35:14.799Z,36.53
2017-10-20T16:37:42.475Z,36.77
2017-10-20T16:40:10.139Z,44.70
2017-10-20T16:42:37.811Z,33.80
2017-10-20T16:45:05.470Z,33.10
2017-10-20T16:47:33.076Z,42.43
2017-10-20T16:50:00.744Z,34.10
2017-10-20T16:52:28.508Z,29.60
2017-10-20T16:54:56.118Z,31.13
2017-10-20T16:57:23.726Z,34.53
2017-10-20T16:59:51.534Z,30.17
2017-10-20T17:02:19.156Z,37.67
2017-10-20T17:04:47.158Z,33.80
2017-10-20T17:07:14.889Z,36.37
2017-10-20T17:09:42.491Z,35.97
2017-10-20T17:12:10.167Z,34.50
2017-10-20T17:14:37.889Z,40.27
2017-10-20T17:17:05.513Z,38.77
2017-10-20T17:19:33.276Z,39.87
2017-10-20T17:22:00.931Z,34.33
2017-10-20T17:24:28.599Z,30.60
2017-10-20T17:26:56.208Z,33.23
2017-10-20T17:29:23.924Z,33.17
2017-10-20T17:31:51.567Z,42.73
2017-10-20T17:34:19.176Z,32.13
2017-10-20T17:36:46.827Z,39.47
2017-10-20T17:39:14.436Z,37.83
2017-10-20T17:41:42.059Z,42.17
2017-10-20T17:44:09.724Z,38.50
2017-10-20T17:46:37.388Z,34.97
2017-10-20T17:49:05.042Z,47.47
2017-10-20T17:51:32.704Z,48.00
2017-10-20T17:54:01.452Z,48.33
2017-10-20T17:56:29.123Z,39.63
2017-10-20T17:58:56.825Z,43.77
2017-10-20T18:01:24.488Z,34.10
2017-10-20T18:03:52.095Z,33.33
2017-10-20T18:06:19.775Z,45.77
2017-10-20T18:08:47.439Z,34.73
2017-10-20T18:11:15.059Z,39.77
2017-10-20T18:13:42.756Z,33.27
2017-10-20T18:16:10.363Z,38.23
2017-10-20T18:18:38.028Z,38.33
2017-10-20T18:21:05.740Z,55.53
2017-10-20T18:23:33.357Z,43.07
2017-10-20T18:26:00.994Z,37.47
2017-10-20T18:28:28.664Z,36.27
2017-10-20T18:30:56.267Z,36.00
2017-10-20T18:33:23.879Z,27.80
2017-10-20T18:35:51.592Z,35.97
2017-10-20T18:38:19.268Z,30.60
2017-10-20T18:40:46.951Z,33.37
2017-10-20T18:43:14.638Z,36.27
2017-10-20T18:45:42.303Z,43.27
2017-10-20T18:48:09.918Z,35.07
2017-10-20T18:50:37.591Z,27.90
2017-10-20T18:53:05.208Z,26.30
2017-10-20T18:55:32.876Z,19.60
2017-10-20T18:58:00.528Z,21.80
2017-10-20T19:00:28.143Z,27.30
2017-10-20T19:02:55.812Z,33.20
2017-10-20T19:05:23.482Z,30.17
2017-10-20T19:07:51.095Z,46.87
2017-10-20T19:10:18.767Z,68.80
2017-10-20T19:12:46.427Z,29.00
2017-10-20T19:15:14.035Z,44.43
2017-10-20T19:17:41.711Z,25.83
2017-10-20T19:20:09.399Z,47.90
2017-10-20T19:22:37.012Z,21.87
2017-10-20T19:25:04.628Z,22.00
2017-10-20T19:27:32.292Z,18.57
2017-10-20T19:29:59.923Z,24.67
2017-10-20T19:32:27.536Z,19.00
2017-10-20T19:34:55.255Z,20.07
2017-10-20T19:37:22.944Z,14.80
2017-10-20T19:39:50.569Z,23.00
2017-10-20T19:42:18.233Z,32.93
2017-10-20T19:44:45.912Z,35.67
2017-10-20T19:47:13.540Z,33.30
2017-10-20T19:49:41.215Z,25.63
2017-10-20T19:52:08.823Z,32.50
2017-10-20T19:54:36.498Z,23.83
2017-10-20T19:57:04.163Z,25.90
2017-10-20T19:59:31.790Z,26.23
2017-10-20T20:01:59.403Z,31.97
2017-10-20T20:04:27.135Z,33.77
2017-10-20T20:06:54.800Z,46.53
2017-10-20T20:09:22.523Z,49.90
2017-10-20T20:11:50.243Z,60.10
2017-10-20T20:14:17.852Z,52.73
2017-10-20T20:16:45.462Z,48.37
2017-10-20T20:19:13.175Z,56.20
2017-10-20T20:21:40.834Z,46.77
2017-10-20T20:24:08.556Z,49.97
2017-10-20T20:26:36.272Z,53.63
2017-10-20T20:29:03.927Z,44.30
2017-10-20T20:31:34.059Z,39.33
2017-10-20T20:34:03.754Z,47.10
2017-10-20T20:36:31.415Z,52.50
2017-10-20T20:38:59.066Z,56.93
2017-10-20T20:41:26.719Z,50.80
2017-10-20T20:43:54.322Z,50.97
2017-10-20T20:46:22.061Z,52.57
2017-10-20T20:48:49.719Z,59.70
2017-10-20T20:51:17.379Z,62.43
2017-10-20T20:53:45.052Z,61.70
2017-10-20T20:56:12.704Z,55.20
2017-10-20T20:58:40.308Z,54.10
2017-10-20T21:01:07.924Z,53.97
2017-10-20T21:03:35.668Z,59.27
2017-10-20T21:06:03.287Z,60.10
2017-10-20T21:08:31.017Z,54.60
2017-10-20T21:10:58.767Z,65.53
2017-10-20T21:13:26.506Z,49.67
2017-10-20T21:15:54.215Z,53.90
2017-10-20T21:18:22.032Z,54.77
2017-10-20T21:20:49.722Z,55.13
2017-10-20T21:23:17.427Z,54.80
2017-10-20T21:25:45.127Z,58.80
2017-10-20T21:28:12.806Z,65.90
2017-10-20T21:30:40.499Z,72.43
2017-10-20T21:33:08.239Z,67.33
2017-10-20T21:35:35.879Z,70.27
2017-10-20T21:38:03.511Z,63.83
2017-10-20T21:40:31.200Z,72.00
2017-10-20T21:42:58.815Z,72.53
2017-10-20T21:45:26.439Z,76.47
2017-10-20T21:47:54.126Z,68.93
2017-10-20T21:50:21.807Z,68.30
2017-10-20T21:52:49.480Z,66.80
2017-10-20T21:55:17.161Z,81.67
2017-10-20T21:57:44.779Z,66.73
2017-10-20T22:00:12.403Z,85.43
2017-10-20T22:02:40.134Z,71.30
2017-10-20T22:05:07.803Z,66.07
2017-10-20T22:07:35.423Z,74.80
2017-10-20T22:10:03.096Z,80.67
2017-10-20T22:12:30.722Z,85.03
2017-10-20T22:14:58.350Z,78.37
2017-10-20T22:17:26.027Z,70.63
2017-10-20T22:19:53.655Z,75.60
2017-10-20T22:22:21.281Z,108.37
2017-10-20T22:24:48.955Z,77.20
2017-10-20T22:27:16.563Z,71.50
2017-10-20T22:29:44.240Z,71.73
2017-10-20T22:32:11.958Z,91.90
2017-10-20T22:34:39.579Z,78.50
2017-10-20T22:37:07.204Z,77.20
2017-10-20T22:39:34.883Z,71.70
2017-10-20T22:42:02.520Z,75.20
2017-10-20T22:44:30.147Z,74.53
2017-10-20T22:46:57.818Z,74.47
2017-10-20T22:49:25.436Z,69.10
2017-10-20T22:51:53.127Z,67.10
2017-10-20T22:54:20.798Z,71.50
2017-10-20T22:56:48.412Z,82.70
2017-10-20T22:59:16.018Z,80.70
2017-10-20T23:01:43.740Z,72.17
2017-10-20T23:04:11.363Z,81.90
2017-10-20T23:06:39.048Z,83.53
2017-10-20T23:09:06.780Z,70.27
2017-10-20T23:11:34.403Z,74.80
2017-10-20T23:14:02.034Z,81.67
2017-10-20T23:16:29.743Z,77.37
2017-10-20T23:18:57.363Z,82.03
2017-10-20T23:21:24.990Z,78.90
2017-10-20T23:23:52.699Z,72.27
2017-10-20T23:26:20.315Z,70.70
2017-10-20T23:28:47.941Z,67.10
2017-10-20T23:31:15.684Z,66.50
2017-10-20T23:33:43.306Z,58.93
2017-10-20T23:36:10.951Z,61.37
2017-10-20T23:38:38.680Z,55.73
2017-10-20T23:41:06.370Z,46.93
2017-10-20T23:43:34.010Z,48.83
2017-10-20T23:46:01.731Z,45.60
2017-10-20T23:48:29.356Z,41.83
2017-10-20T23:50:57.047Z,37.30
2017-10-20T23:53:24.724Z,40.83
2017-10-20T23:55:52.342Z,42.07
2017-10-20T23:58:19.952Z,58.60
